sensor_id;sensor_type;location;lat;lon;timestamp;temperature;humidity
752;DHT22;360;48.764;9.164;2022-08-19T17:07:29;32.20;1.00
752;DHT22;360;48.764;9.164;2022-08-19T17:09:57;23.10;99.90
752;DHT22;360;48.764;9.164;2022-08-19T17:12:25;22.70;99.90
752;DHT22;360;48.764;9.164;2022-08-19T17:14:52;22.50;1.00
752;DHT22;360;48.764;9.164;2022-08-19T17:17:20;22.40;1.00
752;DHT22;360;48.764;9.164;2022-08-19T17:19:47;22.30;1.00
752;DHT22;360;48.764;9.164;2022-08-19T17:22:14;22.30;1.00
752;DHT22;360;48.764;9.164;2022-08-19T17:24:41;22.30;1.00
752;DHT22;360;48.764;9.164;2022-08-19T17:27:09;22.20;1.00
752;DHT22;360;48.764;9.164;2022-08-19T17:29:36;22.20;1.00
752;DHT22;360;48.764;9.164;2022-08-19T17:32:03;22.10;4.20
752;DHT22;360;48.764;9.164;2022-08-19T17:34:32;22.00;17.50
752;DHT22;360;48.764;9.164;2022-08-19T17:36:59;22.00;99.90
752;DHT22;360;48.764;9.164;2022-08-19T17:39:25;21.90;99.90
752;DHT22;360;48.764;9.164;2022-08-19T17:41:52;21.90;99.90
752;DHT22;360;48.764;9.164;2022-08-19T17:44:21;21.80;99.90
752;DHT22;360;48.764;9.164;2022-08-19T17:46:47;21.80;99.90
752;DHT22;360;48.764;9.164;2022-08-19T17:49:14;21.70;99.90
752;DHT22;360;48.764;9.164;2022-08-19T17:51:45;21.70;99.90
752;DHT22;360;48.764;9.164;2022-08-19T17:54:13;21.60;99.90
752;DHT22;360;48.764;9.164;2022-08-19T17:56:42;21.50;99.90
752;DHT22;360;48.764;9.164;2022-08-19T17:59:11;21.50;99.90
752;DHT22;360;48.764;9.164;2022-08-19T18:01:39;21.50;99.90
752;DHT22;360;48.764;9.164;2022-08-19T18:04:06;21.40;99.90
752;DHT22;360;48.764;9.164;2022-08-19T18:06:35;21.50;99.90
752;DHT22;360;48.764;9.164;2022-08-19T18:09:03;21.40;99.90
752;DHT22;360;48.764;9.164;2022-08-19T18:11:30;21.40;99.90
752;DHT22;360;48.764;9.164;2022-08-19T18:13:56;21.40;99.90
752;DHT22;360;48.764;9.164;2022-08-19T18:16:23;21.40;99.90
752;DHT22;360;48.764;9.164;2022-08-19T18:18:52;21.20;99.90
752;DHT22;360;48.764;9.164;2022-08-19T18:21:19;21.30;99.90
752;DHT22;360;48.764;9.164;2022-08-19T18:23:54;21.20;99.90
752;DHT22;360;48.764;9.164;2022-08-19T18:26:21;21.20;99.90
752;DHT22;360;48.764;9.164;2022-08-19T18:28:48;21.20;99.90
752;DHT22;360;48.764;9.164;2022-08-19T18:31:16;21.10;99.90
752;DHT22;360;48.764;9.164;2022-08-19T18:33:43;21.00;99.90
752;DHT22;360;48.764;9.164;2022-08-19T18:36:11;21.00;99.90
752;DHT22;360;48.764;9.164;2022-08-19T18:38:38;21.00;99.90
752;DHT22;360;48.764;9.164;2022-08-19T18:41:22;20.90;99.90
752;DHT22;360;48.764;9.164;2022-08-19T18:44:06;20.90;99.90
752;DHT22;360;48.764;9.164;2022-08-19T18:46:50;20.80;99.90
752;DHT22;360;48.764;9.164;2022-08-19T18:49:34;20.90;99.90
752;DHT22;360;48.764;9.164;2022-08-19T18:52:03;20.80;99.90
752;DHT22;360;48.764;9.164;2022-08-19T18:54:30;20.90;99.90
752;DHT22;360;48.764;9.164;2022-08-19T18:56:57;20.90;99.90
752;DHT22;360;48.764;9.164;2022-08-19T18:59:26;20.90;99.90
752;DHT22;360;48.764;9.164;2022-08-19T19:01:55;20.90;99.90
752;DHT22;360;48.764;9.164;2022-08-19T19:04:24;20.90;99.90
752;DHT22;360;48.764;9.164;2022-08-19T19:06:52;20.90;99.90
752;DHT22;360;48.764;9.164;2022-08-19T19:09:22;20.90;99.90
752;DHT22;360;48.764;9.164;2022-08-19T19:11:51;20.80;99.90
752;DHT22;360;48.764;9.164;2022-08-19T19:14:20;20.90;99.90
752;DHT22;360;48.764;9.164;2022-08-19T19:16:48;20.90;99.90
752;DHT22;360;48.764;9.164;2022-08-19T19:19:15;20.90;99.90
752;DHT22;360;48.764;9.164;2022-08-19T19:21:43;20.80;99.90
752;DHT22;360;48.764;9.164;2022-08-19T19:24:13;20.90;99.90
752;DHT22;360;48.764;9.164;2022-08-19T19:26:41;20.80;99.90
752;DHT22;360;48.764;9.164;2022-08-19T19:29:10;20.80;99.90
752;DHT22;360;48.764;9.164;2022-08-19T19:31:38;20.80;99.90
752;DHT22;360;48.764;9.164;2022-08-19T19:34:05;20.70;99.90
752;DHT22;360;48.764;9.164;2022-08-19T19:36:32;20.70;99.90
752;DHT22;360;48.764;9.164;2022-08-19T19:38:59;20.80;99.90
